Time;durP1;ratioP1;P1;durP2;ratioP2;P2;SDS_P1;SDS_P2;PMS_P1;PMS_P2;Temp;Humidity;BMP_temperature;BMP_pressure;BME280_temperature;BME280_humidity;BME280_pressure;Samples;Min_cycle;Max_cycle;Signal;HPM_P1;HPM_P2
2021/06/19 00:02:19;;;;;;;;;;;22.60;88.80;;;;;;5053973;28;19948;-72
2021/06/19 00:04:44;;;;;;;;;;;22.60;89.00;;;;;;5055255;28;19920;-72
2021/06/19 00:07:10;;;;;;;;;;;22.50;89.60;;;;;;5051536;28;19959;-72
2021/06/19 00:09:37;;;;;;;;;;;22.40;89.70;;;;;;5052499;28;19913;-72
2021/06/19 00:12:03;;;;;;;;;;;22.30;89.80;;;;;;5055551;28;20112;-72
2021/06/19 00:14:29;;;;;;;;;;;22.20;89.70;;;;;;5055446;28;19921;-72
2021/06/19 00:16:54;;;;;;;;;;;22.20;89.60;;;;;;5054433;28;19913;-72
2021/06/19 00:19:20;;;;;;;;;;;22.10;89.90;;;;;;5057176;28;19912;-72
2021/06/19 00:21:46;;;;;;;;;;;21.90;90.20;;;;;;5054295;28;20011;-72
2021/06/19 00:24:12;;;;;;;;;;;21.80;90.40;;;;;;5055581;28;20013;-73
2021/06/19 00:26:38;;;;;;;;;;;21.80;90.30;;;;;;5055357;28;19912;-73
2021/06/19 00:29:03;;;;;;;;;;;21.70;90.50;;;;;;5055247;28;19917;-72
2021/06/19 00:31:29;;;;;;;;;;;21.50;90.40;;;;;;5052693;28;20351;-72
2021/06/19 00:33:55;;;;;;;;;;;21.30;90.10;;;;;;5038171;28;19975;-72
2021/06/19 00:36:23;;;;;;;;;;;20.90;89.90;;;;;;5053904;28;19913;-72
2021/06/19 00:38:49;;;;;;;;;;;20.50;90.60;;;;;;5054724;28;20011;-71
2021/06/19 00:41:14;;;;;;;;;;;20.30;91.20;;;;;;5053848;28;19995;-72
2021/06/19 00:43:40;;;;;;;;;;;20.20;91.50;;;;;;5054789;28;19963;-71
2021/06/19 00:46:07;;;;;;;;;;;20.20;91.70;;;;;;5053895;28;20298;-73
2021/06/19 00:48:32;;;;;;;;;;;20.20;91.60;;;;;;5053840;28;19959;-73
2021/06/19 00:50:58;;;;;;;;;;;20.10;91.40;;;;;;5054085;28;20241;-73
2021/06/19 00:53:23;;;;;;;;;;;20.10;91.40;;;;;;5055532;28;19913;-72
2021/06/19 00:55:49;;;;;;;;;;;20.00;91.60;;;;;;5054784;28;19971;-74
2021/06/19 00:58:15;;;;;;;;;;;20.00;91.70;;;;;;5055639;28;19967;-72
2021/06/19 01:00:40;;;;;;;;;;;19.90;91.80;;;;;;5056722;28;19916;-72
2021/06/19 01:03:06;;;;;;;;;;;19.90;91.90;;;;;;5060122;28;19913;-72
2021/06/19 01:05:32;;;;;;;;;;;19.90;92.00;;;;;;5048183;28;19920;-72
2021/06/19 01:07:58;;;;;;;;;;;19.80;92.10;;;;;;5054767;28;19940;-72
2021/06/19 01:10:24;;;;;;;;;;;19.70;92.10;;;;;;5055145;28;19919;-72
2021/06/19 01:12:49;;;;;;;;;;;19.70;92.30;;;;;;5049275;28;20610;-73
2021/06/19 01:15:15;;;;;;;;;;;19.80;92.30;;;;;;5046044;28;19913;-72
2021/06/19 01:17:41;;;;;;;;;;;19.80;92.10;;;;;;5052829;28;19909;-72
2021/06/19 01:20:07;;;;;;;;;;;19.90;92.10;;;;;;5053369;28;19913;-72
2021/06/19 01:22:33;;;;;;;;;;;19.90;92.10;;;;;;5052562;28;19963;-72
2021/06/19 01:25:02;;;;;;;;;;;19.80;92.10;;;;;;5054607;28;20216;-72
2021/06/19 01:27:29;;;;;;;;;;;19.80;92.10;;;;;;5055224;28;20525;-72
2021/06/19 01:29:55;;;;;;;;;;;19.80;92.30;;;;;;5055085;28;19913;-73
2021/06/19 01:32:21;;;;;;;;;;;19.80;92.30;;;;;;5053218;28;19979;-71
2021/06/19 01:34:47;;;;;;;;;;;19.80;92.20;;;;;;5036866;28;19939;-72
2021/06/19 01:37:16;;;;;;;;;;;19.90;92.00;;;;;;5051403;28;19921;-73
2021/06/19 01:39:41;;;;;;;;;;;19.90;91.80;;;;;;5053756;28;19919;-72
2021/06/19 01:42:07;;;;;;;;;;;20.00;91.60;;;;;;5054075;28;19913;-72
2021/06/19 01:44:33;;;;;;;;;;;20.00;91.60;;;;;;5054506;28;20221;-72
2021/06/19 01:46:58;;;;;;;;;;;19.90;92.00;;;;;;5053979;28;19920;-72
2021/06/19 01:49:30;;;;;;;;;;;19.80;92.30;;;;;;5056772;28;20230;-71
2021/06/19 01:51:58;;;;;;;;;;;19.70;92.40;;;;;;5047848;28;20253;-72
2021/06/19 01:54:24;;;;;;;;;;;19.60;92.50;;;;;;5056313;28;19917;-73
2021/06/19 01:56:49;;;;;;;;;;;19.50;92.60;;;;;;5058310;28;20122;-72
2021/06/19 01:59:16;;;;;;;;;;;19.30;92.60;;;;;;5057118;28;19967;-72
2021/06/19 02:01:44;;;;;;;;;;;19.30;92.60;;;;;;5057828;28;19920;-72
2021/06/19 02:04:09;;;;;;;;;;;19.20;92.80;;;;;;5058343;28;19920;-71
2021/06/19 02:06:35;;;;;;;;;;;19.20;92.90;;;;;;5057000;28;19920;-71
2021/06/19 02:09:07;;;;;;;;;;;19.10;92.90;;;;;;5058877;28;19909;-70
2021/06/19 02:11:33;;;;;;;;;;;19.10;92.70;;;;;;5054343;28;19979;-71
2021/06/19 02:14:00;;;;;;;;;;;19.10;92.90;;;;;;5056043;28;20012;-71
2021/06/19 02:16:26;;;;;;;;;;;18.90;93.10;;;;;;5058554;28;19917;-72
2021/06/19 02:18:54;;;;;;;;;;;18.80;93.30;;;;;;5057896;28;19916;-72
2021/06/19 02:21:20;;;;;;;;;;;18.70;93.20;;;;;;5056291;28;20252;-72
2021/06/19 02:23:48;;;;;;;;;;;18.70;93.20;;;;;;5056843;28;19913;-72
2021/06/19 02:26:14;;;;;;;;;;;18.60;93.20;;;;;;5057525;28;20248;-72
2021/06/19 02:28:40;;;;;;;;;;;18.50;93.40;;;;;;5053733;28;19992;-72
2021/06/19 02:31:07;;;;;;;;;;;18.50;93.40;;;;;;5053795;28;20003;-70
2021/06/19 02:33:33;;;;;;;;;;;18.40;93.70;;;;;;5054822;28;19925;-71
2021/06/19 02:35:58;;;;;;;;;;;18.40;93.50;;;;;;5052953;28;19919;-73
2021/06/19 02:38:24;;;;;;;;;;;18.40;93.40;;;;;;5039497;28;19913;-72
2021/06/19 02:40:51;;;;;;;;;;;18.40;93.30;;;;;;5056848;28;19917;-72
2021/06/19 02:43:17;;;;;;;;;;;18.50;93.20;;;;;;5057384;28;20368;-72
2021/06/19 02:45:43;;;;;;;;;;;18.50;93.10;;;;;;5053833;28;19931;-72
2021/06/19 02:48:08;;;;;;;;;;;18.40;93.20;;;;;;5057452;28;19913;-73
2021/06/19 02:50:35;;;;;;;;;;;18.40;93.20;;;;;;5055969;28;19921;-72
2021/06/19 02:53:02;;;;;;;;;;;18.40;93.20;;;;;;5055614;28;19916;-72
2021/06/19 02:55:29;;;;;;;;;;;18.30;93.20;;;;;;5050883;28;20325;-72
2021/06/19 02:57:55;;;;;;;;;;;18.30;93.40;;;;;;5056707;28;19951;-71
2021/06/19 03:00:20;;;;;;;;;;;18.30;93.50;;;;;;5056963;28;20256;-72
2021/06/19 03:02:46;;;;;;;;;;;18.30;93.40;;;;;;5050886;28;20278;-72
2021/06/19 03:05:13;;;;;;;;;;;18.30;93.20;;;;;;5055917;28;20267;-72
2021/06/19 03:07:39;;;;;;;;;;;18.30;93.40;;;;;;5051207;28;19913;-72
2021/06/19 03:10:06;;;;;;;;;;;18.30;93.10;;;;;;5030597;28;20405;-72
2021/06/19 03:12:32;;;;;;;;;;;18.40;93.20;;;;;;5056959;28;19939;-71
2021/06/19 03:14:57;;;;;;;;;;;18.30;93.20;;;;;;5053677;28;19928;-72
2021/06/19 03:17:23;;;;;;;;;;;18.30;93.20;;;;;;5055862;28;20215;-72
2021/06/19 03:19:48;;;;;;;;;;;18.40;93.10;;;;;;5057043;28;19999;-72
2021/06/19 03:22:14;;;;;;;;;;;18.40;93.20;;;;;;5054139;28;19921;-72
2021/06/19 03:24:40;;;;;;;;;;;18.50;93.20;;;;;;5037622;28;19917;-72
2021/06/19 03:27:06;;;;;;;;;;;18.50;93.10;;;;;;5054934;28;19958;-72
2021/06/19 03:29:35;;;;;;;;;;;18.60;93.10;;;;;;5056225;28;19917;-72
2021/06/19 03:32:00;;;;;;;;;;;18.60;93.10;;;;;;5056812;28;19921;-72
2021/06/19 03:34:28;;;;;;;;;;;18.50;93.20;;;;;;5056536;28;19920;-72
2021/06/19 03:36:58;;;;;;;;;;;18.50;93.20;;;;;;5054769;28;19919;-72
2021/06/19 03:39:24;;;;;;;;;;;18.50;93.00;;;;;;5052797;28;19933;-72
2021/06/19 03:41:50;;;;;;;;;;;18.50;93.00;;;;;;5056139;28;19912;-72
2021/06/19 03:44:15;;;;;;;;;;;18.50;92.90;;;;;;5056298;28;20298;-72
2021/06/19 03:46:41;;;;;;;;;;;18.50;93.00;;;;;;5056083;28;20221;-72
2021/06/19 03:49:07;;;;;;;;;;;18.60;93.00;;;;;;5038962;28;20336;-72
2021/06/19 03:51:32;;;;;;;;;;;18.60;93.00;;;;;;5052410;28;19924;-72
2021/06/19 03:53:58;;;;;;;;;;;18.60;92.90;;;;;;5054807;28;19924;-71
2021/06/19 03:56:24;;;;;;;;;;;18.70;92.80;;;;;;5056034;28;19921;-72
2021/06/19 03:58:49;;;;;;;;;;;18.80;93.00;;;;;;5053051;28;20229;-72
2021/06/19 04:01:15;;;;;;;;;;;18.90;92.70;;;;;;5055907;28;19996;-73
2021/06/19 04:03:40;;;;;;;;;;;19.00;92.90;;;;;;5051820;28;19959;-72
2021/06/19 04:06:06;;;;;;;;;;;19.00;92.90;;;;;;5055734;28;19996;-72
2021/06/19 04:08:31;;;;;;;;;;;19.00;92.80;;;;;;5038386;28;19919;-72
2021/06/19 04:10:57;;;;;;;;;;;19.00;92.90;;;;;;5054871;28;19935;-72
2021/06/19 04:13:22;;;;;;;;;;;19.10;92.80;;;;;;5054909;28;19931;-72
2021/06/19 04:15:48;;;;;;;;;;;19.10;92.90;;;;;;5037389;28;19913;-72
2021/06/19 04:18:13;;;;;;;;;;;19.20;92.80;;;;;;5053222;28;19923;-72
2021/06/19 04:20:39;;;;;;;;;;;19.20;92.90;;;;;;5054411;28;19916;-72
2021/06/19 04:23:04;;;;;;;;;;;19.30;92.60;;;;;;5056634;28;19916;-72
2021/06/19 04:25:30;;;;;;;;;;;19.40;92.50;;;;;;5037285;28;19920;-72
2021/06/19 04:27:57;;;;;;;;;;;19.50;92.50;;;;;;5057581;28;20237;-72
2021/06/19 04:30:23;;;;;;;;;;;19.50;92.30;;;;;;5055706;28;19928;-72
2021/06/19 04:32:49;;;;;;;;;;;19.60;92.30;;;;;;5054836;28;19912;-72
2021/06/19 04:35:15;;;;;;;;;;;19.70;92.30;;;;;;5052184;28;20015;-72
2021/06/19 04:37:41;;;;;;;;;;;19.80;92.40;;;;;;5061113;28;20209;-72
2021/06/19 04:40:16;;;;;;;;;;;19.90;92.20;;;;;;5055092;28;19921;-73
2021/06/19 04:42:46;;;;;;;;;;;20.00;92.10;;;;;;5052794;28;20003;-72
2021/06/19 04:45:12;;;;;;;;;;;20.10;92.20;;;;;;5055162;28;19958;-73
2021/06/19 04:47:39;;;;;;;;;;;20.10;91.70;;;;;;5055518;28;20305;-73
2021/06/19 04:50:05;;;;;;;;;;;20.00;91.40;;;;;;5054852;28;19920;-72
2021/06/19 04:52:33;;;;;;;;;;;19.90;91.50;;;;;;5053601;28;19912;-72
2021/06/19 04:54:59;;;;;;;;;;;19.80;91.90;;;;;;5036242;28;20247;-72
2021/06/19 04:57:24;;;;;;;;;;;19.80;91.70;;;;;;5055228;28;19958;-73
2021/06/19 04:59:50;;;;;;;;;;;19.90;91.50;;;;;;5053618;28;20532;-72
2021/06/19 05:02:15;;;;;;;;;;;20.10;91.40;;;;;;5053489;28;19949;-72
2021/06/19 05:04:41;;;;;;;;;;;20.20;91.40;;;;;;5054891;28;19913;-73
2021/06/19 05:07:07;;;;;;;;;;;20.40;90.80;;;;;;5053933;28;19969;-73
2021/06/19 05:09:32;;;;;;;;;;;20.40;90.90;;;;;;5036535;28;19912;-72
2021/06/19 05:11:58;;;;;;;;;;;20.60;90.50;;;;;;5054056;28;19995;-72
2021/06/19 05:14:23;;;;;;;;;;;20.70;90.20;;;;;;5054873;28;19967;-72
2021/06/19 05:16:49;;;;;;;;;;;20.90;90.60;;;;;;5054600;28;20279;-72
2021/06/19 05:19:17;;;;;;;;;;;21.20;90.00;;;;;;5054858;28;19941;-72
2021/06/19 05:21:42;;;;;;;;;;;21.30;90.40;;;;;;5052640;28;20476;-72
2021/06/19 05:24:08;;;;;;;;;;;21.30;90.20;;;;;;5053950;28;19913;-72
2021/06/19 05:26:34;;;;;;;;;;;21.50;90.40;;;;;;5048929;28;19920;-72
2021/06/19 05:29:00;;;;;;;;;;;21.90;89.70;;;;;;5058265;28;19917;-72
2021/06/19 05:31:26;;;;;;;;;;;22.20;88.80;;;;;;5058990;28;19963;-72
2021/06/19 05:33:51;;;;;;;;;;;22.20;88.90;;;;;;5058682;28;19964;-73
2021/06/19 05:36:17;;;;;;;;;;;22.30;88.80;;;;;;5057090;28;19920;-72
2021/06/19 05:38:42;;;;;;;;;;;22.60;88.60;;;;;;5059095;28;19936;-72
2021/06/19 05:41:08;;;;;;;;;;;22.80;87.70;;;;;;5058633;28;20305;-72
2021/06/19 05:43:33;;;;;;;;;;;22.90;87.90;;;;;;5040389;28;19913;-72
2021/06/19 05:45:59;;;;;;;;;;;23.10;87.10;;;;;;5058514;28;20685;-71
2021/06/19 05:48:24;;;;;;;;;;;23.20;86.50;;;;;;5056545;28;19963;-72
2021/06/19 05:50:50;;;;;;;;;;;23.60;85.80;;;;;;5056927;28;20216;-72
2021/06/19 05:53:15;;;;;;;;;;;23.80;81.30;;;;;;5056859;28;19940;-71
2021/06/19 05:55:41;;;;;;;;;;;24.10;80.00;;;;;;5057766;28;20267;-72
2021/06/19 05:58:09;;;;;;;;;;;24.30;79.30;;;;;;5058034;28;19912;-71
2021/06/19 06:00:35;;;;;;;;;;;24.50;77.00;;;;;;5044650;28;19920;-70
2021/06/19 06:03:01;;;;;;;;;;;24.30;82.30;;;;;;5058417;28;20297;-72
2021/06/19 06:05:26;;;;;;;;;;;24.10;82.10;;;;;;5057028;28;19919;-72
2021/06/19 06:07:52;;;;;;;;;;;24.20;81.00;;;;;;5057930;28;19913;-72
2021/06/19 06:10:18;;;;;;;;;;;24.40;78.90;;;;;;5058719;28;19913;-72
2021/06/19 06:12:43;;;;;;;;;;;24.60;80.40;;;;;;5058082;28;20286;-72
2021/06/19 06:15:09;;;;;;;;;;;24.90;77.40;;;;;;5048297;28;20769;-71
2021/06/19 06:17:35;;;;;;;;;;;25.10;77.00;;;;;;5052461;28;20020;-72
2021/06/19 06:20:01;;;;;;;;;;;25.20;75.60;;;;;;5058238;28;19923;-72
2021/06/19 06:22:27;;;;;;;;;;;25.40;74.40;;;;;;5056809;28;19920;-72
2021/06/19 06:24:52;;;;;;;;;;;25.40;77.60;;;;;;5054748;28;19921;-71
2021/06/19 06:27:18;;;;;;;;;;;25.40;78.90;;;;;;5039245;28;19939;-71
2021/06/19 06:29:43;;;;;;;;;;;25.60;76.60;;;;;;5058151;28;19913;-72
2021/06/19 06:32:09;;;;;;;;;;;25.70;76.10;;;;;;5058102;28;19931;-72
2021/06/19 06:34:35;;;;;;;;;;;25.80;76.20;;;;;;5056207;28;19927;-71
2021/06/19 06:37:00;;;;;;;;;;;25.90;74.70;;;;;;5056678;28;19979;-72
2021/06/19 06:39:26;;;;;;;;;;;25.90;75.10;;;;;;5057240;28;19913;-72
2021/06/19 06:41:51;;;;;;;;;;;26.10;74.50;;;;;;5057565;28;20260;-71
2021/06/19 06:44:17;;;;;;;;;;;26.20;75.70;;;;;;5058005;28;19974;-72
2021/06/19 06:46:42;;;;;;;;;;;26.00;78.60;;;;;;5057417;28;19959;-72
2021/06/19 06:49:08;;;;;;;;;;;25.80;80.10;;;;;;5042534;28;20007;-72
2021/06/19 06:51:34;;;;;;;;;;;25.80;81.40;;;;;;5055972;28;19913;-71
2021/06/19 06:54:00;;;;;;;;;;;25.70;78.80;;;;;;5056654;28;19939;-73
2021/06/19 06:56:25;;;;;;;;;;;25.60;78.70;;;;;;5056752;28;20011;-72
2021/06/19 06:58:51;;;;;;;;;;;25.60;80.80;;;;;;5056986;28;20367;-72
2021/06/19 07:01:17;;;;;;;;;;;25.80;80.20;;;;;;5056310;28;19917;-72
2021/06/19 07:03:42;;;;;;;;;;;25.90;76.10;;;;;;5056714;28;20225;-72
2021/06/19 07:06:08;;;;;;;;;;;26.20;75.40;;;;;;5055906;28;20290;-72
2021/06/19 07:08:33;;;;;;;;;;;26.40;75.10;;;;;;5056841;28;19947;-72
2021/06/19 07:10:59;;;;;;;;;;;26.50;76.00;;;;;;5057205;28;19913;-72
2021/06/19 07:13:24;;;;;;;;;;;26.60;75.40;;;;;;5057217;28;19917;-73
2021/06/19 07:15:50;;;;;;;;;;;26.70;74.60;;;;;;5056932;28;19959;-72
2021/06/19 07:18:15;;;;;;;;;;;26.80;73.80;;;;;;5056401;28;19917;-72
2021/06/19 07:20:44;;;;;;;;;;;27.10;73.50;;;;;;5055228;28;19913;-72
2021/06/19 07:23:09;;;;;;;;;;;27.40;73.50;;;;;;5050312;28;20396;-71
2021/06/19 07:25:35;;;;;;;;;;;28.10;71.60;;;;;;5055044;28;19912;-72
2021/06/19 07:28:00;;;;;;;;;;;28.70;69.80;;;;;;5057219;28;19913;-72
2021/06/19 07:30:26;;;;;;;;;;;29.90;68.30;;;;;;5056901;28;19958;-72
2021/06/19 07:32:53;;;;;;;;;;;31.00;64.60;;;;;;5051902;28;20002;-72
2021/06/19 07:35:18;;;;;;;;;;;31.30;64.70;;;;;;5053535;28;19924;-73
2021/06/19 07:37:44;;;;;;;;;;;31.20;66.10;;;;;;5055904;28;19919;-73
2021/06/19 07:40:10;;;;;;;;;;;30.80;67.00;;;;;;5039899;28;19971;-72
2021/06/19 07:42:38;;;;;;;;;;;31.00;68.00;;;;;;5056408;28;19919;-72
2021/06/19 07:45:04;;;;;;;;;;;31.40;66.80;;;;;;5056407;28;20051;-73
2021/06/19 07:47:30;;;;;;;;;;;31.70;67.20;;;;;;5054161;28;19921;-73
2021/06/19 07:49:55;;;;;;;;;;;31.40;64.80;;;;;;5029751;28;19921;-72
2021/06/19 07:52:21;;;;;;;;;;;31.50;66.30;;;;;;5052676;28;19917;-72
2021/06/19 07:54:47;;;;;;;;;;;32.00;65.00;;;;;;5033067;28;19917;-72
2021/06/19 07:57:13;;;;;;;;;;;32.10;64.20;;;;;;5051933;28;20217;-72
2021/06/19 07:59:38;;;;;;;;;;;32.10;63.80;;;;;;5056805;28;19920;-72
2021/06/19 08:02:06;;;;;;;;;;;32.50;63.90;;;;;;5058105;28;19923;-72
2021/06/19 08:04:32;;;;;;;;;;;32.90;63.90;;;;;;5049328;28;19913;-72
2021/06/19 08:06:58;;;;;;;;;;;33.00;61.10;;;;;;5046795;28;19913;-72
2021/06/19 08:09:23;;;;;;;;;;;33.30;60.90;;;;;;5056273;28;19920;-73
2021/06/19 08:11:49;;;;;;;;;;;33.60;59.00;;;;;;5056204;28;19917;-73
2021/06/19 08:14:16;;;;;;;;;;;33.50;60.00;;;;;;5055343;28;19916;-73
2021/06/19 08:16:42;;;;;;;;;;;34.10;57.80;;;;;;5055994;28;19913;-73
2021/06/19 08:19:09;;;;;;;;;;;34.50;58.40;;;;;;5056224;28;20327;-72
2021/06/19 08:21:35;;;;;;;;;;;34.60;59.10;;;;;;5036687;28;19913;-72
2021/06/19 08:24:00;;;;;;;;;;;34.80;58.30;;;;;;5053040;28;19924;-73
2021/06/19 08:26:26;;;;;;;;;;;35.10;56.40;;;;;;5052930;28;19920;-72
2021/06/19 08:28:51;;;;;;;;;;;34.60;57.80;;;;;;5055288;28;19913;-70
2021/06/19 08:31:17;;;;;;;;;;;34.60;57.10;;;;;;5038360;28;20015;-68
2021/06/19 08:33:42;;;;;;;;;;;34.00;57.70;;;;;;5056785;28;20004;-70
2021/06/19 08:36:08;;;;;;;;;;;33.30;59.30;;;;;;5054636;28;19927;-69
2021/06/19 08:38:34;;;;;;;;;;;32.90;60.50;;;;;;5056103;28;19913;-69
2021/06/19 08:41:00;;;;;;;;;;;32.90;60.90;;;;;;5050796;28;19917;-70
2021/06/19 08:43:28;;;;;;;;;;;33.20;59.70;;;;;;5052191;28;20031;-70
2021/06/19 08:45:54;;;;;;;;;;;33.30;59.70;;;;;;5053204;28;19959;-69
2021/06/19 08:48:20;;;;;;;;;;;33.10;62.70;;;;;;5055252;28;19956;-70
2021/06/19 08:50:46;;;;;;;;;;;33.20;62.80;;;;;;5054082;28;20255;-70
2021/06/19 08:53:12;;;;;;;;;;;33.40;62.20;;;;;;5054762;28;19919;-71
2021/06/19 08:55:41;;;;;;;;;;;33.10;63.30;;;;;;5051847;28;20015;-70
2021/06/19 08:58:06;;;;;;;;;;;33.00;62.50;;;;;;5055556;28;19917;-70
2021/06/19 09:00:32;;;;;;;;;;;32.80;62.70;;;;;;5055297;28;19913;-69
2021/06/19 09:02:57;;;;;;;;;;;32.70;63.60;;;;;;5056277;28;19913;-68
2021/06/19 09:05:30;;;;;;;;;;;33.10;61.40;;;;;;5041887;28;19979;-68
2021/06/19 09:07:56;;;;;;;;;;;33.20;62.50;;;;;;5053441;28;19917;-68
2021/06/19 09:10:36;;;;;;;;;;;33.40;62.40;;;;;;5054407;28;19913;-69
2021/06/19 09:13:04;;;;;;;;;;;33.20;62.30;;;;;;5046196;28;19948;-70
2021/06/19 09:15:35;;;;;;;;;;;33.40;61.90;;;;;;5054440;28;19921;-70
2021/06/19 09:18:00;;;;;;;;;;;33.80;60.80;;;;;;5037018;28;20317;-69
2021/06/19 09:20:33;;;;;;;;;;;33.90;62.00;;;;;;5050264;28;19917;-69
2021/06/19 09:23:06;;;;;;;;;;;34.30;60.30;;;;;;5054373;28;19966;-70
2021/06/19 09:25:32;;;;;;;;;;;34.30;59.50;;;;;;5047515;28;19948;-69
2021/06/19 09:27:57;;;;;;;;;;;33.80;61.90;;;;;;5044660;28;20010;-70
2021/06/19 09:30:23;;;;;;;;;;;33.90;60.70;;;;;;5051000;28;19929;-70
2021/06/19 09:32:49;;;;;;;;;;;34.20;60.20;;;;;;5047993;28;19913;-69
2021/06/19 09:35:20;;;;;;;;;;;34.40;61.30;;;;;;5046121;28;19929;-69
2021/06/19 09:37:50;;;;;;;;;;;34.70;59.60;;;;;;5047908;28;19916;-69
2021/06/19 09:40:21;;;;;;;;;;;34.60;60.20;;;;;;5048295;28;20755;-70
2021/06/19 09:42:47;;;;;;;;;;;34.30;60.80;;;;;;5045924;28;19994;-69
2021/06/19 09:45:22;;;;;;;;;;;33.60;60.90;;;;;;5043367;28;19956;-70
2021/06/19 09:47:48;;;;;;;;;;;32.80;63.50;;;;;;5053134;28;19917;-71
2021/06/19 09:50:14;;;;;;;;;;;33.50;63.20;;;;;;5052473;28;19920;-71
2021/06/19 09:52:39;;;;;;;;;;;34.00;61.80;;;;;;5055255;28;20071;-70
2021/06/19 09:55:12;;;;;;;;;;;34.60;61.50;;;;;;5048934;28;20270;-71
2021/06/19 09:57:41;;;;;;;;;;;34.50;60.00;;;;;;5050839;28;19921;-71
2021/06/19 10:00:08;;;;;;;;;;;33.50;61.90;;;;;;5058733;28;19917;-71
2021/06/19 10:02:33;;;;;;;;;;;33.30;60.70;;;;;;5049585;28;20386;-71
2021/06/19 10:04:59;;;;;;;;;;;33.30;63.00;;;;;;5047308;28;19956;-71
2021/06/19 10:07:28;;;;;;;;;;;33.50;61.90;;;;;;5044286;28;19949;-71
2021/06/19 10:09:54;;;;;;;;;;;32.90;63.40;;;;;;5050916;28;20008;-72
2021/06/19 10:12:27;;;;;;;;;;;33.40;63.90;;;;;;5057814;28;19917;-72
2021/06/19 10:14:54;;;;;;;;;;;33.80;62.30;;;;;;5058662;28;20297;-71
2021/06/19 10:17:22;;;;;;;;;;;34.40;60.00;;;;;;5049133;28;20245;-72
2021/06/19 10:19:48;;;;;;;;;;;35.20;59.80;;;;;;5046162;28;19920;-72
2021/06/19 10:22:13;;;;;;;;;;;35.90;58.40;;;;;;5049132;28;19917;-72
2021/06/19 10:24:41;;;;;;;;;;;36.40;59.30;;;;;;5038708;28;19909;-72
2021/06/19 10:27:07;;;;;;;;;;;37.00;57.20;;;;;;5050747;28;19981;-72
2021/06/19 10:29:33;;;;;;;;;;;36.90;56.20;;;;;;5054029;28;19913;-71
2021/06/19 10:31:58;;;;;;;;;;;36.60;57.00;;;;;;5062778;28;19912;-72
2021/06/19 10:34:25;;;;;;;;;;;36.80;55.90;;;;;;5050814;28;19947;-71
2021/06/19 10:36:52;;;;;;;;;;;35.80;56.20;;;;;;5051058;28;19996;-72
2021/06/19 10:39:42;;;;;;;;;;;35.00;55.60;;;;;;5058112;28;20019;-71
2021/06/19 10:42:16;;;;;;;;;;;34.30;56.90;;;;;;5050602;28;19916;-72
2021/06/19 10:44:51;;;;;;;;;;;34.70;56.60;;;;;;5049139;28;19944;-72
2021/06/19 10:47:17;;;;;;;;;;;35.00;57.10;;;;;;5057943;28;19916;-71
2021/06/19 10:49:46;;;;;;;;;;;35.00;55.30;;;;;;5041572;28;19956;-72
2021/06/19 10:52:22;;;;;;;;;;;34.50;57.00;;;;;;5049385;28;19916;-72
2021/06/19 10:55:06;;;;;;;;;;;35.10;56.70;;;;;;5056849;28;20288;-73
2021/06/19 10:57:41;;;;;;;;;;;35.90;55.40;;;;;;5050330;28;20379;-71
2021/06/19 11:00:26;;;;;;;;;;;36.00;55.10;;;;;;5057098;28;20003;-71
2021/06/19 11:02:53;;;;;;;;;;;35.60;54.10;;;;;;5051322;28;19913;-72
2021/06/19 11:05:50;;;;;;;;;;;35.20;57.50;;;;;;5042426;28;19920;-72
2021/06/19 11:08:17;;;;;;;;;;;35.60;56.10;;;;;;5013650;28;19913;-72
2021/06/19 11:10:43;;;;;;;;;;;35.70;56.30;;;;;;5036188;28;19924;-73
2021/06/19 11:13:27;;;;;;;;;;;35.70;55.40;;;;;;5054093;28;19912;-72
2021/06/19 11:15:52;;;;;;;;;;;34.80;55.70;;;;;;5053567;28;19947;-72
2021/06/19 11:18:50;;;;;;;;;;;34.10;57.60;;;;;;5056139;28;19940;-72
2021/06/19 11:21:16;;;;;;;;;;;34.10;59.70;;;;;;5011582;28;19920;-72
2021/06/19 11:24:00;;;;;;;;;;;34.80;56.70;;;;;;5048055;28;20310;-72
2021/06/19 11:26:44;;;;;;;;;;;34.90;58.30;;;;;;5044631;28;19917;-72
2021/06/19 11:29:29;;;;;;;;;;;35.40;54.10;;;;;;5037331;28;19970;-72
2021/06/19 11:31:55;;;;;;;;;;;35.70;53.70;;;;;;5052928;28;20305;-72
2021/06/19 11:34:39;;;;;;;;;;;36.50;53.60;;;;;;5048774;28;19929;-72
2021/06/19 11:37:05;;;;;;;;;;;36.60;53.30;;;;;;5042631;28;19913;-72
2021/06/19 11:39:35;;;;;;;;;;;36.10;54.00;;;;;;5056743;28;19920;-72
2021/06/19 11:42:01;;;;;;;;;;;34.80;55.30;;;;;;5056525;28;19916;-72
2021/06/19 11:44:32;;;;;;;;;;;34.60;56.30;;;;;;5056596;28;19919;-73
2021/06/19 11:46:59;;;;;;;;;;;34.70;56.60;;;;;;5052319;28;20344;-72
2021/06/19 11:49:27;;;;;;;;;;;35.10;56.10;;;;;;5055795;28;19966;-72
2021/06/19 11:51:53;;;;;;;;;;;35.80;54.60;;;;;;5054545;28;19920;-72
2021/06/19 11:54:18;;;;;;;;;;;36.40;53.30;;;;;;5055474;28;19917;-72
2021/06/19 11:56:44;;;;;;;;;;;36.60;54.30;;;;;;5055559;28;20266;-72
2021/06/19 11:59:12;;;;;;;;;;;36.40;51.70;;;;;;5056587;28;19920;-72
2021/06/19 12:01:39;;;;;;;;;;;35.70;53.00;;;;;;5054619;28;20359;-72
2021/06/19 12:04:06;;;;;;;;;;;35.30;54.20;;;;;;5056483;28;19912;-72
2021/06/19 12:06:31;;;;;;;;;;;35.10;56.50;;;;;;5053167;28;19917;-74
2021/06/19 12:08:57;;;;;;;;;;;35.10;55.90;;;;;;5052956;28;19920;-73
2021/06/19 12:11:30;;;;;;;;;;;35.30;52.80;;;;;;5054431;28;19917;-73
2021/06/19 12:13:56;;;;;;;;;;;34.80;56.90;;;;;;5055143;28;19924;-72
2021/06/19 12:16:29;;;;;;;;;;;34.20;56.50;;;;;;5055916;28;19913;-73
2021/06/19 12:18:58;;;;;;;;;;;34.00;56.50;;;;;;5054739;28;19919;-73
2021/06/19 12:21:29;;;;;;;;;;;34.40;56.30;;;;;;5046334;28;19927;-73
2021/06/19 12:23:54;;;;;;;;;;;35.10;56.50;;;;;;5055259;28;19927;-73
2021/06/19 12:26:20;;;;;;;;;;;35.50;54.40;;;;;;5046618;28;20373;-73
2021/06/19 12:28:49;;;;;;;;;;;36.10;53.20;;;;;;5052600;28;20011;-73
2021/06/19 12:31:15;;;;;;;;;;;35.90;52.10;;;;;;5050706;28;19916;-73
2021/06/19 12:33:42;;;;;;;;;;;35.60;52.40;;;;;;5051009;28;20019;-73
2021/06/19 12:36:12;;;;;;;;;;;36.00;52.40;;;;;;5050917;28;19974;-73
2021/06/19 12:38:43;;;;;;;;;;;35.80;52.00;;;;;;5051595;28;19912;-74
2021/06/19 12:41:08;;;;;;;;;;;35.50;51.40;;;;;;5052294;28;19963;-74
2021/06/19 12:43:44;;;;;;;;;;;36.10;50.30;;;;;;5034626;28;19952;-73
2021/06/19 12:46:14;;;;;;;;;;;35.90;50.80;;;;;;5049138;28;19967;-74
2021/06/19 12:48:41;;;;;;;;;;;36.00;52.40;;;;;;5051162;28;20329;-73
2021/06/19 12:51:19;;;;;;;;;;;35.70;53.70;;;;;;5051896;28;19924;-73
2021/06/19 12:53:44;;;;;;;;;;;35.60;52.20;;;;;;5034328;28;19956;-73
2021/06/19 12:56:11;;;;;;;;;;;35.50;51.70;;;;;;5053084;28;20246;-72
2021/06/19 12:58:37;;;;;;;;;;;35.60;54.10;;;;;;5052613;28;19948;-73
2021/06/19 13:01:13;;;;;;;;;;;35.70;53.50;;;;;;5045348;28;19970;-73
2021/06/19 13:03:38;;;;;;;;;;;35.90;53.20;;;;;;5047827;28;19913;-73
2021/06/19 13:06:04;;;;;;;;;;;35.30;54.30;;;;;;5050917;28;20233;-73
2021/06/19 13:08:30;;;;;;;;;;;35.60;52.50;;;;;;5047418;28;20013;-73
2021/06/19 13:10:57;;;;;;;;;;;35.60;52.00;;;;;;5033545;28;19917;-73
2021/06/19 13:13:36;;;;;;;;;;;35.90;53.10;;;;;;5045302;28;19927;-73
2021/06/19 13:16:01;;;;;;;;;;;36.30;52.00;;;;;;5046806;28;19913;-73
2021/06/19 13:18:27;;;;;;;;;;;36.10;50.90;;;;;;5050158;28;19963;-73
2021/06/19 13:21:07;;;;;;;;;;;35.60;53.90;;;;;;5220841;22;19935;-74
2021/06/19 13:23:33;;;;;;;;;;;36.30;51.20;;;;;;5056754;28;19917;-72
2021/06/19 13:26:06;;;;;;;;;;;36.60;52.20;;;;;;5062630;28;19916;-72
2021/06/19 13:28:32;;;;;;;;;;;36.60;51.30;;;;;;5057166;28;19921;-73
2021/06/19 13:31:26;;;;;;;;;;;36.00;51.60;;;;;;5069844;28;20334;-72
2021/06/19 13:34:00;;;;;;;;;;;35.10;54.30;;;;;;5043857;28;19974;-73
2021/06/19 13:36:25;;;;;;;;;;;35.30;53.30;;;;;;5067705;28;19966;-73
2021/06/19 13:38:58;;;;;;;;;;;35.50;52.90;;;;;;5051583;28;19932;-73
2021/06/19 13:41:26;;;;;;;;;;;35.80;52.70;;;;;;5051402;28;19912;-73
2021/06/19 13:43:51;;;;;;;;;;;36.20;52.60;;;;;;5051531;28;19917;-73
2021/06/19 13:46:17;;;;;;;;;;;35.80;53.80;;;;;;5059157;28;19919;-73
2021/06/19 13:48:42;;;;;;;;;;;36.40;54.40;;;;;;5056861;28;19999;-73
2021/06/19 13:51:11;;;;;;;;;;;36.80;49.80;;;;;;5053058;28;20228;-72
2021/06/19 13:53:55;;;;;;;;;;;36.10;52.30;;;;;;5037704;28;20244;-74
2021/06/19 13:56:21;;;;;;;;;;;36.40;52.30;;;;;;5056462;28;20268;-73
2021/06/19 13:58:47;;;;;;;;;;;37.00;50.70;;;;;;5055680;28;19917;-73
2021/06/19 14:01:13;;;;;;;;;;;37.10;51.50;;;;;;5051730;28;19917;-73
2021/06/19 14:03:40;;;;;;;;;;;37.60;50.30;;;;;;5037436;28;19916;-73
2021/06/19 14:06:11;;;;;;;;;;;37.80;49.80;;;;;;5051403;28;19963;-72
2021/06/19 14:08:37;;;;;;;;;;;37.90;49.70;;;;;;5049981;28;19924;-72
2021/06/19 14:11:03;;;;;;;;;;;37.50;51.70;;;;;;5057503;28;19948;-74
2021/06/19 14:13:28;;;;;;;;;;;37.70;50.80;;;;;;5037523;28;19964;-73
2021/06/19 14:15:54;;;;;;;;;;;37.90;51.40;;;;;;5055041;28;19967;-73
2021/06/19 14:18:19;;;;;;;;;;;37.90;50.70;;;;;;5054766;28;19913;-74